CheckWX is a tool to help pilots better visualize weather data.  It is not intended as a substitute for an official pre-flight weather briefing.

07:36:27 UTC

KCGC METAR
Crystal River-Captain Tom Davis Field Airport
Crystal River, Florida, USA
Current

21 mins ago

KCGC 240715Z AUTO 00000KT 10SM CLR 11/10 A3012 RMK AO2
Observed
Feb-24 @ 07:15 UTC
Visibility
10 SM
Flight Rules
VFR
Cloud Levels
  • Clear skies
Temperature
11°C / 52°F
Dewpoint
10°C / 50°F
Humidity
94%
Altimeter
30.12" Hg
Pressure
1020.02 hPa
Previous

41 mins ago

KCGC 240655Z AUTO 00000KT 10SM SCT060 12/10 A3013 RMK AO2
Observed
Feb-24 @ 06:55 UTC
Visibility
10 SM
Flight Rules
VFR
Cloud Levels
  • Scattered at 6,000' AGL
Temperature
12°C / 54°F
Dewpoint
10°C / 50°F
Humidity
88%
Altimeter
30.13" Hg
Pressure
1020.32 hPa
Previous

1 hour ago

KCGC 240635Z AUTO 00000KT 10SM BKN060 12/10 A3013 RMK AO2
Observed
Feb-24 @ 06:35 UTC
Visibility
10 SM
Flight Rules
VFR
Cloud Levels
  • Broken at 6,000' AGL
Temperature
12°C / 54°F
Dewpoint
10°C / 50°F
Humidity
88%
Altimeter
30.13" Hg
Pressure
1020.32 hPa